Time;durP1;ratioP1;P1;durP2;ratioP2;P2;SDS_P1;SDS_P2;PMS_P1;PMS_P2;Temp;Humidity;BMP_temperature;BMP_pressure;BME280_temperature;BME280_humidity;BME280_pressure;Samples;Min_cycle;Max_cycle;Signal;HPM_P1;HPM_P2
2022/07/16 00:03:43;;;;;;;;;;;;;;;;;;4957063;28;20420;-81
2022/07/16 00:06:08;;;;;;;;;;;;;;;;;;4969828;28;19918;-80
2022/07/16 00:08:34;;;;;;;;;;;;;;;;;;4960886;28;19918;-81
2022/07/16 00:10:59;;;;;;;;;;;;;;;;;;4968727;28;20004;-82
2022/07/16 00:13:25;;;;;;;;;;;;;;;;;;4959610;28;19921;-80
2022/07/16 00:15:50;;;;;;;;;;;;;;;;;;4969654;28;19914;-81
2022/07/16 00:20:59;;;;;;;;;;;;;;;;;;4962999;28;19914;-81
2022/07/16 00:23:25;;;;;;;;;;;;;;;;;;4966437;28;20377;-80
2022/07/16 00:25:50;;;;;;;;;;;;;;;;;;4940474;28;20387;-82
2022/07/16 00:28:15;;;;;;;;;;;;;;;;;;4968485;28;20428;-83
2022/07/16 00:30:41;;;;;;;;;;;;;;;;;;4970585;28;20009;-82
2022/07/16 00:33:06;;;;;;;;;;;;;;;;;;4960784;28;20382;-81
2022/07/16 00:35:31;;;;;;;;;;;;;;;;;;4968427;28;20222;-83
2022/07/16 00:37:57;;;;;;;;;;;;;;;;;;4957180;28;19945;-84
2022/07/16 00:40:23;;;;;;;;;;;;;;;;;;4969799;28;20378;-83
2022/07/16 00:42:48;;;;;;;;;;;;;;;;;;4966207;28;19915;-81
2022/07/16 00:45:13;;;;;;;;;;;;;;;;;;4964988;28;19981;-80
2022/07/16 00:47:39;;;;;;;;;;;;;;;;;;4975584;28;19972;-81
2022/07/16 00:50:04;;;;;;;;;;;;;;;;;;4975776;28;20384;-80
2022/07/16 00:52:29;;;;;;;;;;;;;;;;;;4962083;28;20346;-83
2022/07/16 00:54:54;;;;;;;;;;;;;;;;;;4967828;28;20329;-82
2022/07/16 00:57:20;;;;;;;;;;;;;;;;;;4963728;28;19937;-81
2022/07/16 00:59:45;;;;;;;;;;;;;;;;;;4972089;28;19950;-81
2022/07/16 01:02:11;;;;;;;;;;;;;;;;;;4960871;28;20409;-81
2022/07/16 01:04:36;;;;;;;;;;;;;;;;;;4973377;28;19917;-81
2022/07/16 01:07:02;;;;;;;;;;;;;;;;;;4968423;28;19926;-81
2022/07/16 01:09:27;;;;;;;;;;;;;;;;;;4957083;28;19937;-81
2022/07/16 01:11:52;;;;;;;;;;;;;;;;;;4965010;28;20412;-82
2022/07/16 01:14:18;;;;;;;;;;;;;;;;;;4977486;28;20369;-81
2022/07/16 01:16:43;;;;;;;;;;;;;;;;;;4972509;28;19974;-81
2022/07/16 01:19:08;;;;;;;;;;;;;;;;;;4970527;28;19915;-82
2022/07/16 01:21:34;;;;;;;;;;;;;;;;;;4975388;28;19918;-81
2022/07/16 01:23:59;;;;;;;;;;;;;;;;;;4994123;28;20015;-82
2022/07/16 01:26:24;;;;;;;;;;;;;;;;;;4971274;28;19954;-82
2022/07/16 01:28:50;;;;;;;;;;;;;;;;;;4965013;28;20321;-81
2022/07/16 01:31:15;;;;;;;;;;;;;;;;;;4963729;28;19941;-82
2022/07/16 01:33:40;;;;;;;;;;;;;;;;;;4987272;28;19918;-81
2022/07/16 01:36:06;;;;;;;;;;;;;;;;;;4971923;28;20318;-82
2022/07/16 01:38:31;;;;;;;;;;;;;;;;;;4961228;28;19914;-80
2022/07/16 01:40:57;;;;;;;;;;;;;;;;;;4972117;28;19929;-82
2022/07/16 01:43:22;;;;;;;;;;;;;;;;;;4962215;28;20254;-83
2022/07/16 01:45:47;;;;;;;;;;;;;;;;;;4954681;28;20329;-82
2022/07/16 01:48:13;;;;;;;;;;;;;;;;;;4943017;28;20009;-82
2022/07/16 01:50:39;;;;;;;;;;;;;;;;;;4950382;28;19915;-82
2022/07/16 01:53:05;;;;;;;;;;;;;;;;;;4958089;28;19941;-81
2022/07/16 01:55:30;;;;;;;;;;;;;;;;;;4948400;28;19914;-83
2022/07/16 01:57:56;;;;;;;;;;;;;;;;;;4973625;28;19921;-81
2022/07/16 02:00:21;;;;;;;;;;;;;;;;;;4959749;28;19941;-82
2022/07/16 02:02:46;;;;;;;;;;;;;;;;;;4965466;28;19942;-82
2022/07/16 02:05:12;;;;;;;;;;;;;;;;;;4966137;28;19925;-82
2022/07/16 02:07:37;;;;;;;;;;;;;;;;;;4958728;28;19918;-81
2022/07/16 02:10:03;;;;;;;;;;;;;;;;;;4954291;28;19922;-82
2022/07/16 02:12:28;;;;;;;;;;;;;;;;;;4944022;28;19915;-81
2022/07/16 02:14:54;;;;;;;;;;;;;;;;;;4969526;28;19918;-82
2022/07/16 02:17:19;;;;;;;;;;;;;;;;;;4961042;28;19969;-81
2022/07/16 02:19:44;;;;;;;;;;;;;;;;;;4970406;28;19914;-80
2022/07/16 02:22:10;;;;;;;;;;;;;;;;;;4957969;28;19961;-80
2022/07/16 02:24:35;;;;;;;;;;;;;;;;;;4950451;28;20289;-83
2022/07/16 02:27:01;;;;;;;;;;;;;;;;;;4965932;28;19917;-81
2022/07/16 02:29:26;;;;;;;;;;;;;;;;;;4960960;28;19976;-81
2022/07/16 02:31:51;;;;;;;;;;;;;;;;;;4966446;28;19914;-81
2022/07/16 02:34:17;;;;;;;;;;;;;;;;;;4970194;28;20274;-82
2022/07/16 02:36:42;;;;;;;;;;;;;;;;;;4962384;28;20351;-82
2022/07/16 02:39:07;;;;;;;;;;;;;;;;;;4975239;28;19926;-81
2022/07/16 02:41:33;;;;;;;;;;;;;;;;;;4958942;28;19915;-81
2022/07/16 02:43:58;;;;;;;;;;;;;;;;;;4938091;28;19941;-81
2022/07/16 02:46:23;;;;;;;;;;;;;;;;;;4954242;28;19915;-82
2022/07/16 02:48:49;;;;;;;;;;;;;;;;;;4964708;28;19914;-83
2022/07/16 02:51:14;;;;;;;;;;;;;;;;;;4944866;29;19969;-82
2022/07/16 02:53:40;;;;;;;;;;;;;;;;;;4958249;28;19922;-81
2022/07/16 02:56:05;;;;;;;;;;;;;;;;;;4970792;28;19914;-82
2022/07/16 02:58:30;;;;;;;;;;;;;;;;;;4961093;28;19993;-81
2022/07/16 03:00:56;;;;;;;;;;;;;;;;;;4963089;28;20069;-83
2022/07/16 03:03:21;;;;;;;;;;;;;;;;;;4947130;28;19996;-82
2022/07/16 03:05:46;;;;;;;;;;;;;;;;;;4971680;28;20157;-82
2022/07/16 03:08:12;;;;;;;;;;;;;;;;;;4958708;28;19929;-82
2022/07/16 03:10:37;;;;;;;;;;;;;;;;;;4966687;28;20286;-82
2022/07/16 03:13:03;;;;;;;;;;;;;;;;;;4964078;28;19914;-80
2022/07/16 03:15:28;;;;;;;;;;;;;;;;;;4942692;29;20432;-83
2022/07/16 03:17:53;;;;;;;;;;;;;;;;;;4970518;28;19925;-82
2022/07/16 03:20:19;;;;;;;;;;;;;;;;;;4956930;28;19914;-82
2022/07/16 03:22:44;;;;;;;;;;;;;;;;;;4974112;28;19918;-82
2022/07/16 03:25:09;;;;;;;;;;;;;;;;;;4964726;28;19918;-83
2022/07/16 03:27:35;;;;;;;;;;;;;;;;;;4973448;28;19921;-83
2022/07/16 03:30:01;;;;;;;;;;;;;;;;;;4987725;28;19914;-81
2022/07/16 03:32:26;;;;;;;;;;;;;;;;;;4982764;28;19918;-83
2022/07/16 03:34:51;;;;;;;;;;;;;;;;;;4962399;28;20278;-82
2022/07/16 03:37:17;;;;;;;;;;;;;;;;;;4961109;28;19914;-80
2022/07/16 03:39:42;;;;;;;;;;;;;;;;;;4971765;28;20377;-83
2022/07/16 03:42:08;;;;;;;;;;;;;;;;;;4957566;28;19918;-82
2022/07/16 03:44:34;;;;;;;;;;;;;;;;;;4966592;28;19919;-81
2022/07/16 03:46:59;;;;;;;;;;;;;;;;;;4963694;28;20404;-82
2022/07/16 03:49:25;;;;;;;;;;;;;;;;;;4959988;28;20010;-83
2022/07/16 03:51:50;;;;;;;;;;;;;;;;;;4967737;28;19915;-80
2022/07/16 03:54:16;;;;;;;;;;;;;;;;;;4967750;28;19914;-80
2022/07/16 03:56:41;;;;;;;;;;;;;;;;;;4978306;28;19910;-83
2022/07/16 03:59:06;;;;;;;;;;;;;;;;;;4944925;29;20357;-83
2022/07/16 04:01:32;;;;;;;;;;;;;;;;;;4968644;28;19914;-84
2022/07/16 04:03:57;;;;;;;;;;;;;;;;;;4956119;28;19930;-82
2022/07/16 04:06:23;;;;;;;;;;;;;;;;;;4989061;23;19930;-84
2022/07/16 04:08:48;;;;;;;;;;;;;;;;;;4987217;28;20309;-83
2022/07/16 04:11:13;;;;;;;;;;;;;;;;;;4981221;28;20009;-84
2022/07/16 04:13:39;;;;;;;;;;;;;;;;;;4970122;28;20296;-84
2022/07/16 04:16:04;;;;;;;;;;;;;;;;;;4980181;28;19910;-84
2022/07/16 04:18:30;;;;;;;;;;;;;;;;;;4956775;28;19914;-83
2022/07/16 04:20:55;;;;;;;;;;;;;;;;;;4966381;28;19914;-84
2022/07/16 04:23:20;;;;;;;;;;;;;;;;;;4941160;29;19972;-83
2022/07/16 04:25:46;;;;;;;;;;;;;;;;;;4957618;28;20294;-84
2022/07/16 04:28:11;;;;;;;;;;;;;;;;;;4958154;29;19938;-84
2022/07/16 04:30:36;;;;;;;;;;;;;;;;;;4957701;29;20528;-80
2022/07/16 04:33:02;;;;;;;;;;;;;;;;;;4958712;29;19918;-85
2022/07/16 04:35:28;;;;;;;;;;;;;;;;;;4938003;28;19919;-85
2022/07/16 04:37:53;;;;;;;;;;;;;;;;;;4955302;29;19919;-85
2022/07/16 04:40:19;;;;;;;;;;;;;;;;;;4954694;29;20373;-84
2022/07/16 04:42:44;;;;;;;;;;;;;;;;;;4924698;29;19936;-88
2022/07/16 04:45:09;;;;;;;;;;;;;;;;;;4955829;28;19929;-86
2022/07/16 04:47:35;;;;;;;;;;;;;;;;;;4940093;29;19914;-83
2022/07/16 04:50:00;;;;;;;;;;;;;;;;;;4939377;29;19914;-84
2022/07/16 04:52:25;;;;;;;;;;;;;;;;;;4951487;28;19918;-85
2022/07/16 04:54:51;;;;;;;;;;;;;;;;;;4956160;29;20337;-84
2022/07/16 04:57:16;;;;;;;;;;;;;;;;;;4957436;29;20005;-85
2022/07/16 04:59:41;;;;;;;;;;;;;;;;;;4940231;29;19961;-84
2022/07/16 05:04:51;;;;;;;;;;;;;;;;;;4946984;29;20394;-85
2022/07/16 05:07:16;;;;;;;;;;;;;;;;;;4955922;28;20017;-83
2022/07/16 05:09:42;;;;;;;;;;;;;;;;;;4955981;29;19953;-83
2022/07/16 05:12:07;;;;;;;;;;;;;;;;;;4958432;29;19918;-81
2022/07/16 05:14:33;;;;;;;;;;;;;;;;;;4957176;28;19911;-81
2022/07/16 05:16:58;;;;;;;;;;;;;;;;;;4957217;29;20386;-81
2022/07/16 05:19:23;;;;;;;;;;;;;;;;;;4941228;29;19981;-79
2022/07/16 05:21:49;;;;;;;;;;;;;;;;;;4957530;29;20389;-81
2022/07/16 05:24:14;;;;;;;;;;;;;;;;;;4970351;28;19914;-83
2022/07/16 05:26:39;;;;;;;;;;;;;;;;;;4956492;28;20393;-83
2022/07/16 05:29:05;;;;;;;;;;;;;;;;;;4956805;29;19957;-82
2022/07/16 05:31:30;;;;;;;;;;;;;;;;;;4955936;29;19993;-82
2022/07/16 05:33:55;;;;;;;;;;;;;;;;;;4957273;29;19911;-82
2022/07/16 05:36:21;;;;;;;;;;;;;;;;;;4956558;28;19921;-82
2022/07/16 05:38:46;;;;;;;;;;;;;;;;;;4956573;29;20417;-84
2022/07/16 05:41:12;;;;;;;;;;;;;;;;;;4911391;29;19919;-84
2022/07/16 05:43:37;;;;;;;;;;;;;;;;;;4964678;28;20010;-83
2022/07/16 05:46:03;;;;;;;;;;;;;;;;;;4955821;28;19922;-84
2022/07/16 05:48:28;;;;;;;;;;;;;;;;;;4965519;28;19915;-86
2022/07/16 05:50:53;;;;;;;;;;;;;;;;;;4977766;28;19918;-84
2022/07/16 05:53:19;;;;;;;;;;;;;;;;;;4955586;29;19914;-84
2022/07/16 05:55:44;;;;;;;;;;;;;;;;;;4973314;28;19915;-84
2022/07/16 05:58:10;;;;;;;;;;;;;;;;;;4956901;29;20382;-84
2022/07/16 06:00:36;;;;;;;;;;;;;;;;;;4939788;29;19918;-84
2022/07/16 06:03:01;;;;;;;;;;;;;;;;;;4964097;28;19921;-81
2022/07/16 06:05:26;;;;;;;;;;;;;;;;;;4954909;29;19918;-81
2022/07/16 06:07:52;;;;;;;;;;;;;;;;;;4969978;28;19919;-82
2022/07/16 06:10:18;;;;;;;;;;;;;;;;;;4940699;29;20526;-82
2022/07/16 06:12:43;;;;;;;;;;;;;;;;;;4966149;28;19994;-82
2022/07/16 06:15:10;;;;;;;;;;;;;;;;;;4956010;28;20320;-82
2022/07/16 06:17:36;;;;;;;;;;;;;;;;;;4956194;28;19914;-82
2022/07/16 06:20:02;;;;;;;;;;;;;;;;;;4956943;28;20294;-84
2022/07/16 06:22:27;;;;;;;;;;;;;;;;;;4955523;28;20349;-82
2022/07/16 06:24:53;;;;;;;;;;;;;;;;;;4955402;28;20405;-82
2022/07/16 06:27:18;;;;;;;;;;;;;;;;;;4955156;28;20341;-81
2022/07/16 06:29:44;;;;;;;;;;;;;;;;;;4955009;29;20342;-81
2022/07/16 06:32:09;;;;;;;;;;;;;;;;;;4969900;28;20288;-82
2022/07/16 06:34:34;;;;;;;;;;;;;;;;;;4955351;29;20313;-82
2022/07/16 06:37:00;;;;;;;;;;;;;;;;;;4975340;28;19922;-79
2022/07/16 06:39:26;;;;;;;;;;;;;;;;;;4945131;29;20469;-80
2022/07/16 06:41:51;;;;;;;;;;;;;;;;;;4952381;29;19918;-80
2022/07/16 06:44:17;;;;;;;;;;;;;;;;;;4968984;28;19942;-78
2022/07/16 06:46:42;;;;;;;;;;;;;;;;;;4953960;28;20239;-79
2022/07/16 06:49:08;;;;;;;;;;;;;;;;;;4958766;28;20289;-79
2022/07/16 06:51:33;;;;;;;;;;;;;;;;;;4965540;28;19914;-79
2022/07/16 06:53:59;;;;;;;;;;;;;;;;;;4953826;28;19936;-81
2022/07/16 06:56:24;;;;;;;;;;;;;;;;;;4955209;28;20322;-81
2022/07/16 06:58:49;;;;;;;;;;;;;;;;;;4964301;28;20278;-82
2022/07/16 07:01:15;;;;;;;;;;;;;;;;;;4938489;29;19915;-81
2022/07/16 07:03:40;;;;;;;;;;;;;;;;;;4957322;28;19914;-81
2022/07/16 07:06:06;;;;;;;;;;;;;;;;;;4953807;28;19918;-80
2022/07/16 07:08:31;;;;;;;;;;;;;;;;;;4955606;28;20025;-80
2022/07/16 07:10:59;;;;;;;;;;;;;;;;;;4947675;29;20338;-82
2022/07/16 07:13:25;;;;;;;;;;;;;;;;;;4954451;29;19957;-80
2022/07/16 07:15:50;;;;;;;;;;;;;;;;;;4954586;28;20009;-82
2022/07/16 07:18:16;;;;;;;;;;;;;;;;;;4954206;29;20383;-84
2022/07/16 07:20:42;;;;;;;;;;;;;;;;;;4955082;29;19915;-82
2022/07/16 07:23:07;;;;;;;;;;;;;;;;;;4947060;29;19918;-83
2022/07/16 07:25:33;;;;;;;;;;;;;;;;;;4956116;29;19919;-84
2022/07/16 07:27:58;;;;;;;;;;;;;;;;;;4970878;28;19950;-83
2022/07/16 07:30:24;;;;;;;;;;;;;;;;;;4968384;28;19915;-82
2022/07/16 07:32:49;;;;;;;;;;;;;;;;;;4953909;29;19914;-82
2022/07/16 07:35:15;;;;;;;;;;;;;;;;;;4954181;28;19918;-83
2022/07/16 07:37:40;;;;;;;;;;;;;;;;;;4953031;29;19922;-83
2022/07/16 07:40:06;;;;;;;;;;;;;;;;;;4955154;28;20329;-83
2022/07/16 07:42:31;;;;;;;;;;;;;;;;;;4966983;28;19915;-84
2022/07/16 07:44:57;;;;;;;;;;;;;;;;;;4938381;29;19970;-82
2022/07/16 07:47:23;;;;;;;;;;;;;;;;;;4928495;28;20005;-84
2022/07/16 07:49:48;;;;;;;;;;;;;;;;;;4922159;29;20231;-82
2022/07/16 07:52:13;;;;;;;;;;;;;;;;;;4937301;29;20036;-81
2022/07/16 07:54:39;;;;;;;;;;;;;;;;;;4952346;29;20328;-81
2022/07/16 07:57:04;;;;;;;;;;;;;;;;;;4954972;28;20409;-81
2022/07/16 07:59:30;;;;;;;;;;;;;;;;;;4953885;29;19915;-82
2022/07/16 08:01:55;;;;;;;;;;;;;;;;;;4954829;29;19925;-81
2022/07/16 08:04:21;;;;;;;;;;;;;;;;;;4953582;29;20289;-80
2022/07/16 08:06:46;;;;;;;;;;;;;;;;;;4953604;29;19958;-81
2022/07/16 08:09:12;;;;;;;;;;;;;;;;;;4937798;29;19926;-82
2022/07/16 08:11:37;;;;;;;;;;;;;;;;;;4954008;29;19918;-81
2022/07/16 08:14:03;;;;;;;;;;;;;;;;;;4952703;29;20033;-81
2022/07/16 08:16:28;;;;;;;;;;;;;;;;;;4954483;28;20349;-82
2022/07/16 08:18:54;;;;;;;;;;;;;;;;;;4954675;28;19914;-81
2022/07/16 08:21:19;;;;;;;;;;;;;;;;;;4959830;28;20330;-81
2022/07/16 08:26:29;;;;;;;;;;;;;;;;;;4937787;29;19942;-82
2022/07/16 08:28:54;;;;;;;;;;;;;;;;;;4945876;29;20366;-80
2022/07/16 08:31:20;;;;;;;;;;;;;;;;;;4937961;29;19925;-84
2022/07/16 08:33:46;;;;;;;;;;;;;;;;;;4954590;29;20263;-82
2022/07/16 08:36:11;;;;;;;;;;;;;;;;;;4936500;29;19914;-82
2022/07/16 08:38:37;;;;;;;;;;;;;;;;;;4938093;29;19911;-82
2022/07/16 08:41:02;;;;;;;;;;;;;;;;;;4946085;29;19914;-83
2022/07/16 08:43:28;;;;;;;;;;;;;;;;;;4953427;29;19918;-83
2022/07/16 08:45:53;;;;;;;;;;;;;;;;;;4953995;28;20024;-83
2022/07/16 08:48:19;;;;;;;;;;;;;;;;;;4955293;28;20003;-86
2022/07/16 08:50:44;;;;;;;;;;;;;;;;;;4969459;28;20001;-86
2022/07/16 08:53:10;;;;;;;;;;;;;;;;;;4960837;29;19915;-87
2022/07/16 08:55:35;;;;;;;;;;;;;;;;;;4959810;29;19939;-86
2022/07/16 08:58:01;;;;;;;;;;;;;;;;;;4960109;28;20013;-87
2022/07/16 09:00:26;;;;;;;;;;;;;;;;;;4959536;28;19914;-85
2022/07/16 09:02:52;;;;;;;;;;;;;;;;;;4958279;29;20262;-85
2022/07/16 09:05:17;;;;;;;;;;;;;;;;;;4943983;29;20252;-86
2022/07/16 09:07:44;;;;;;;;;;;;;;;;;;4958129;29;19919;-83
2022/07/16 09:10:09;;;;;;;;;;;;;;;;;;4956977;29;20378;-83
2022/07/16 09:12:35;;;;;;;;;;;;;;;;;;4941027;29;19915;-82
2022/07/16 09:15:01;;;;;;;;;;;;;;;;;;4966032;28;19914;-83
2022/07/16 09:17:27;;;;;;;;;;;;;;;;;;4956845;28;20400;-83
2022/07/16 09:19:52;;;;;;;;;;;;;;;;;;4956969;29;19918;-82
2022/07/16 09:22:18;;;;;;;;;;;;;;;;;;4967360;28;19970;-83
2022/07/16 09:24:43;;;;;;;;;;;;;;;;;;4980825;28;19969;-86
2022/07/16 09:27:09;;;;;;;;;;;;;;;;;;4957870;29;19915;-83
2022/07/16 09:29:35;;;;;;;;;;;;;;;;;;4957606;28;20361;-84
2022/07/16 09:32:00;;;;;;;;;;;;;;;;;;4941212;29;20329;-83
2022/07/16 09:34:26;;;;;;;;;;;;;;;;;;4946258;29;20440;-82
2022/07/16 09:36:51;;;;;;;;;;;;;;;;;;4958068;29;20401;-83
2022/07/16 09:39:16;;;;;;;;;;;;;;;;;;4957372;29;20001;-83
2022/07/16 09:41:42;;;;;;;;;;;;;;;;;;4956043;29;19969;-83
2022/07/16 09:44:07;;;;;;;;;;;;;;;;;;4955496;29;19930;-82
2022/07/16 09:46:33;;;;;;;;;;;;;;;;;;4955906;29;20309;-83
2022/07/16 09:48:58;;;;;;;;;;;;;;;;;;4954351;29;19969;-83
2022/07/16 09:51:29;;;;;;;;;;;;;;;;;;4952964;29;19914;-83
2022/07/16 09:53:55;;;;;;;;;;;;;;;;;;4955153;29;20012;-84
2022/07/16 09:56:20;;;;;;;;;;;;;;;;;;4982594;28;20005;-83
2022/07/16 09:58:46;;;;;;;;;;;;;;;;;;4945684;29;19921;-85
2022/07/16 10:01:11;;;;;;;;;;;;;;;;;;4940300;29;19969;-87
2022/07/16 10:03:37;;;;;;;;;;;;;;;;;;4957323;28;20002;-87
2022/07/16 10:06:06;;;;;;;;;;;;;;;;;;4968216;23;19934;-83
2022/07/16 10:08:32;;;;;;;;;;;;;;;;;;4951116;28;20293;-83
2022/07/16 10:11:40;;;;;;;;;;;;;;;;;;4994491;28;19918;-82
2022/07/16 10:13:48;;;;;;;;;;;;;;;;;;4950800;28;19939;-83
2022/07/16 10:16:34;;;;;;;;;;;;;;;;;;4972695;28;20377;-83
2022/07/16 10:18:59;;;;;;;;;;;;;;;;;;4967580;28;19946;-84
2022/07/16 10:21:24;;;;;;;;;;;;;;;;;;4963558;28;20033;-83
2022/07/16 10:23:50;;;;;;;;;;;;;;;;;;4944320;28;20486;-84
2022/07/16 10:26:15;;;;;;;;;;;;;;;;;;4973228;28;19921;-80
2022/07/16 10:28:41;;;;;;;;;;;;;;;;;;4982618;28;19933;-80
2022/07/16 10:31:09;;;;;;;;;;;;;;;;;;4983271;28;20289;-80
2022/07/16 10:33:35;;;;;;;;;;;;;;;;;;4976890;28;19976;-80
2022/07/16 10:36:05;;;;;;;;;;;;;;;;;;4961165;28;20369;-81
2022/07/16 10:38:37;;;;;;;;;;;;;;;;;;4953629;28;19918;-84
2022/07/16 10:41:04;;;;;;;;;;;;;;;;;;4965916;28;20251;-82
2022/07/16 10:43:30;;;;;;;;;;;;;;;;;;4976865;28;19917;-83
2022/07/16 10:45:55;;;;;;;;;;;;;;;;;;4978359;28;19925;-83
2022/07/16 10:48:21;;;;;;;;;;;;;;;;;;4955619;28;19922;-84
2022/07/16 10:50:46;;;;;;;;;;;;;;;;;;4983362;28;19917;-83
2022/07/16 10:53:12;;;;;;;;;;;;;;;;;;4964991;28;19918;-84
2022/07/16 10:55:40;;;;;;;;;;;;;;;;;;4972576;28;19918;-85
2022/07/16 10:58:05;;;;;;;;;;;;;;;;;;4977672;28;20012;-82
2022/07/16 11:00:31;;;;;;;;;;;;;;;;;;4969773;28;20015;-82
2022/07/16 11:02:56;;;;;;;;;;;;;;;;;;4966310;28;19914;-81
2022/07/16 11:05:21;;;;;;;;;;;;;;;;;;4963172;28;20057;-82
2022/07/16 11:07:47;;;;;;;;;;;;;;;;;;4960216;28;20030;-83
2022/07/16 11:10:13;;;;;;;;;;;;;;;;;;4974782;28;19972;-81
2022/07/16 11:12:38;;;;;;;;;;;;;;;;;;4981103;28;20308;-80
2022/07/16 11:15:04;;;;;;;;;;;;;;;;;;4965587;28;19914;-81
2022/07/16 11:17:29;;;;;;;;;;;;;;;;;;4970806;28;19918;-81
2022/07/16 11:19:58;;;;;;;;;;;;;;;;;;4977802;28;19918;-82
2022/07/16 11:22:24;;;;;;;;;;;;;;;;;;4940496;28;19914;-83
2022/07/16 11:24:49;;;;;;;;;;;;;;;;;;4933989;28;19918;-82
2022/07/16 11:27:14;;;;;;;;;;;;;;;;;;4963263;28;19918;-83
2022/07/16 11:29:40;;;;;;;;;;;;;;;;;;4972385;28;20329;-82
2022/07/16 11:32:05;;;;;;;;;;;;;;;;;;4977127;28;19921;-82
2022/07/16 11:34:30;;;;;;;;;;;;;;;;;;4987012;28;19946;-82
2022/07/16 11:36:57;;;;;;;;;;;;;;;;;;4975817;28;19914;-81
2022/07/16 11:39:23;;;;;;;;;;;;;;;;;;4979567;28;20005;-81
2022/07/16 11:41:48;;;;;;;;;;;;;;;;;;4958925;28;20064;-81
2022/07/16 11:44:14;;;;;;;;;;;;;;;;;;4949156;28;20385;-80
2022/07/16 11:46:39;;;;;;;;;;;;;;;;;;4975525;28;19991;-81
2022/07/16 11:49:04;;;;;;;;;;;;;;;;;;4981789;28;19918;-80
2022/07/16 11:51:30;;;;;;;;;;;;;;;;;;4968814;28;20457;-82
2022/07/16 11:53:55;;;;;;;;;;;;;;;;;;4973534;28;19921;-81
2022/07/16 11:56:21;;;;;;;;;;;;;;;;;;4975229;28;19913;-80
2022/07/16 11:58:46;;;;;;;;;;;;;;;;;;4967235;28;20274;-80
2022/07/16 12:01:11;;;;;;;;;;;;;;;;;;4973490;28;19914;-81
2022/07/16 12:03:37;;;;;;;;;;;;;;;;;;4971309;28;19933;-81
2022/07/16 12:06:02;;;;;;;;;;;;;;;;;;4976559;28;20525;-82
2022/07/16 12:08:28;;;;;;;;;;;;;;;;;;4954252;28;19968;-81
2022/07/16 12:10:53;;;;;;;;;;;;;;;;;;4959659;28;19920;-81
2022/07/16 12:13:19;;;;;;;;;;;;;;;;;;4963220;28;19921;-81
2022/07/16 12:15:44;;;;;;;;;;;;;;;;;;4989843;28;20004;-81
2022/07/16 12:18:10;;;;;;;;;;;;;;;;;;4947726;28;19914;-80
2022/07/16 12:20:36;;;;;;;;;;;;;;;;;;4976319;28;19939;-81
2022/07/16 12:23:02;;;;;;;;;;;;;;;;;;4956769;28;19924;-82
2022/07/16 12:25:27;;;;;;;;;;;;;;;;;;4989686;28;19918;-81
2022/07/16 12:27:53;;;;;;;;;;;;;;;;;;4985287;28;19914;-87
2022/07/16 12:30:18;;;;;;;;;;;;;;;;;;4957064;28;19921;-84
2022/07/16 12:32:43;;;;;;;;;;;;;;;;;;4954818;28;19910;-84
2022/07/16 12:35:09;;;;;;;;;;;;;;;;;;4969572;28;20000;-80
2022/07/16 12:37:34;;;;;;;;;;;;;;;;;;4963675;28;19918;-79
2022/07/16 12:39:59;;;;;;;;;;;;;;;;;;4993812;28;19917;-83
2022/07/16 12:42:25;;;;;;;;;;;;;;;;;;4965081;28;19914;-79
2022/07/16 12:44:50;;;;;;;;;;;;;;;;;;4960926;28;19918;-81
2022/07/16 12:47:16;;;;;;;;;;;;;;;;;;4987104;28;19913;-80
2022/07/16 12:49:41;;;;;;;;;;;;;;;;;;4978261;28;19957;-79
2022/07/16 12:52:06;;;;;;;;;;;;;;;;;;4988256;28;19916;-82
2022/07/16 12:58:47;;;;;;;;;;;;;;;;;;4935252;28;20012;-80
2022/07/16 13:00:01;;;;;;;;;;;;;;;;;;4975912;28;20101;-80
2022/07/16 13:02:27;;;;;;;;;;;;;;;;;;4963460;28;20212;-79
2022/07/16 13:04:52;;;;;;;;;;;;;;;;;;4969860;28;19922;-79
2022/07/16 13:07:17;;;;;;;;;;;;;;;;;;4971522;28;20008;-79
2022/07/16 13:09:43;;;;;;;;;;;;;;;;;;4963764;28;20012;-79
2022/07/16 13:12:10;;;;;;;;;;;;;;;;;;4964658;28;20266;-82
2022/07/16 13:14:35;;;;;;;;;;;;;;;;;;4974010;28;20397;-79
2022/07/16 13:17:00;;;;;;;;;;;;;;;;;;4980287;28;19920;-80
2022/07/16 13:19:26;;;;;;;;;;;;;;;;;;4966781;28;19910;-81
2022/07/16 13:22:24;;;;;;;;;;;;;;;;;;4995995;28;19968;-81
2022/07/16 13:24:43;;;;;;;;;;;;;;;;;;4983331;28;19917;-81
2022/07/16 13:27:08;;;;;;;;;;;;;;;;;;4967730;28;19914;-82
2022/07/16 13:29:35;;;;;;;;;;;;;;;;;;4973890;28;20378;-81
2022/07/16 13:32:00;;;;;;;;;;;;;;;;;;4979346;28;19914;-78
2022/07/16 13:34:26;;;;;;;;;;;;;;;;;;4989793;28;20317;-79
2022/07/16 13:36:51;;;;;;;;;;;;;;;;;;4962132;28;19920;-79
2022/07/16 13:39:17;;;;;;;;;;;;;;;;;;4982924;28;19914;-80
2022/07/16 13:41:42;;;;;;;;;;;;;;;;;;4974590;28;19916;-80
2022/07/16 13:44:08;;;;;;;;;;;;;;;;;;4961093;28;20344;-80
2022/07/16 13:46:33;;;;;;;;;;;;;;;;;;4954384;28;19915;-80
2022/07/16 13:48:59;;;;;;;;;;;;;;;;;;4968372;28;19913;-80
2022/07/16 13:51:24;;;;;;;;;;;;;;;;;;4947197;28;19922;-80
2022/07/16 13:53:49;;;;;;;;;;;;;;;;;;4970922;28;19960;-78
2022/07/16 13:56:15;;;;;;;;;;;;;;;;;;4976855;28;19920;-77
2022/07/16 13:58:40;;;;;;;;;;;;;;;;;;4969463;28;19965;-79
2022/07/16 14:01:05;;;;;;;;;;;;;;;;;;4976571;28;19918;-77
2022/07/16 14:03:34;;;;;;;;;;;;;;;;;;4962195;28;19933;-77
2022/07/16 14:05:59;;;;;;;;;;;;;;;;;;4976694;28;19972;-78
2022/07/16 14:08:25;;;;;;;;;;;;;;;;;;4960957;28;19921;-78
2022/07/16 14:10:50;;;;;;;;;;;;;;;;;;4968107;28;19921;-78
2022/07/16 14:13:16;;;;;;;;;;;;;;;;;;4987288;28;19910;-77
2022/07/16 14:15:41;;;;;;;;;;;;;;;;;;4961359;28;19914;-79
2022/07/16 14:18:07;;;;;;;;;;;;;;;;;;4973556;28;19918;-77
2022/07/16 14:20:32;;;;;;;;;;;;;;;;;;4976562;28;19960;-77
2022/07/16 14:22:58;;;;;;;;;;;;;;;;;;4983841;28;19941;-78
2022/07/16 14:25:23;;;;;;;;;;;;;;;;;;4970428;28;19918;-79
2022/07/16 14:27:48;;;;;;;;;;;;;;;;;;4977606;28;20044;-78
2022/07/16 14:30:14;;;;;;;;;;;;;;;;;;4989665;28;19944;-78
2022/07/16 14:32:39;;;;;;;;;;;;;;;;;;4964183;28;19914;-79
2022/07/16 14:35:05;;;;;;;;;;;;;;;;;;4982636;28;19935;-80
2022/07/16 14:37:30;;;;;;;;;;;;;;;;;;4988769;28;20232;-79
2022/07/16 14:39:55;;;;;;;;;;;;;;;;;;4960172;28;19965;-79
2022/07/16 14:42:21;;;;;;;;;;;;;;;;;;4971312;28;19917;-80
2022/07/16 14:44:49;;;;;;;;;;;;;;;;;;4950994;28;20331;-81
2022/07/16 14:47:17;;;;;;;;;;;;;;;;;;4960134;28;19918;-79
2022/07/16 14:49:42;;;;;;;;;;;;;;;;;;4990363;28;20141;-80
2022/07/16 14:52:08;;;;;;;;;;;;;;;;;;4959744;28;19914;-80
2022/07/16 14:54:33;;;;;;;;;;;;;;;;;;4953392;28;19914;-81
2022/07/16 14:56:59;;;;;;;;;;;;;;;;;;4959698;28;20510;-80
2022/07/16 14:59:24;;;;;;;;;;;;;;;;;;4980205;28;20214;-80
2022/07/16 15:01:50;;;;;;;;;;;;;;;;;;4991370;28;20364;-79
2022/07/16 15:04:16;;;;;;;;;;;;;;;;;;4962408;28;20005;-85
2022/07/16 15:06:41;;;;;;;;;;;;;;;;;;4992279;28;19961;-84
2022/07/16 15:09:06;;;;;;;;;;;;;;;;;;4968289;28;20276;-85
2022/07/16 15:11:32;;;;;;;;;;;;;;;;;;4989280;28;19921;-84
2022/07/16 15:14:00;;;;;;;;;;;;;;;;;;4960098;28;19941;-84
2022/07/16 15:16:27;;;;;;;;;;;;;;;;;;4954731;28;19921;-85
2022/07/16 15:18:52;;;;;;;;;;;;;;;;;;4966235;28;20353;-85
2022/07/16 15:21:18;;;;;;;;;;;;;;;;;;4958040;28;19972;-84
2022/07/16 15:23:43;;;;;;;;;;;;;;;;;;4993659;28;19997;-86
2022/07/16 15:26:09;;;;;;;;;;;;;;;;;;4977430;28;19972;-86
2022/07/16 15:28:34;;;;;;;;;;;;;;;;;;4989643;28;19918;-87
2022/07/16 15:31:00;;;;;;;;;;;;;;;;;;4948478;28;19922;-85
2022/07/16 15:33:37;;;;;;;;;;;;;;;;;;4947798;28;19937;-86
2022/07/16 15:36:03;;;;;;;;;;;;;;;;;;4957061;28;19949;-85
2022/07/16 15:38:28;;;;;;;;;;;;;;;;;;4970091;28;19921;-87
2022/07/16 15:40:53;;;;;;;;;;;;;;;;;;4974595;28;20364;-88
2022/07/16 15:43:19;;;;;;;;;;;;;;;;;;4988006;28;19921;-85
2022/07/16 15:45:44;;;;;;;;;;;;;;;;;;4973673;28;19918;-86
2022/07/16 15:48:10;;;;;;;;;;;;;;;;;;4976946;28;19910;-84
2022/07/16 15:50:35;;;;;;;;;;;;;;;;;;4971072;28;19918;-87
2022/07/16 15:53:00;;;;;;;;;;;;;;;;;;4988161;28;19914;-86
2022/07/16 15:55:26;;;;;;;;;;;;;;;;;;4990588;28;19913;-86
2022/07/16 15:57:51;;;;;;;;;;;;;;;;;;4973441;28;19915;-86
2022/07/16 16:00:17;;;;;;;;;;;;;;;;;;4976164;28;20329;-86
2022/07/16 16:02:42;;;;;;;;;;;;;;;;;;4952140;28;19936;-87
2022/07/16 16:05:11;;;;;;;;;;;;;;;;;;4970501;28;19918;-88
2022/07/16 16:07:37;;;;;;;;;;;;;;;;;;4991376;28;19944;-87
2022/07/16 16:10:02;;;;;;;;;;;;;;;;;;4965696;28;20001;-88
2022/07/16 16:12:28;;;;;;;;;;;;;;;;;;4963620;28;19949;-88
2022/07/16 16:14:53;;;;;;;;;;;;;;;;;;4985981;28;19981;-86
2022/07/16 16:17:19;;;;;;;;;;;;;;;;;;4979947;28;20004;-87
2022/07/16 16:19:44;;;;;;;;;;;;;;;;;;4982642;28;19922;-89
2022/07/16 16:22:09;;;;;;;;;;;;;;;;;;4957891;28;19941;-89
2022/07/16 16:24:36;;;;;;;;;;;;;;;;;;4982901;28;19997;-85
2022/07/16 16:27:02;;;;;;;;;;;;;;;;;;4968612;28;19920;-85
2022/07/16 16:29:27;;;;;;;;;;;;;;;;;;4967170;28;19914;-88
2022/07/16 16:31:53;;;;;;;;;;;;;;;;;;4982292;28;19997;-87
2022/07/16 16:34:18;;;;;;;;;;;;;;;;;;4989695;28;19990;-85
2022/07/16 16:36:44;;;;;;;;;;;;;;;;;;4966246;28;19914;-84
2022/07/16 16:39:09;;;;;;;;;;;;;;;;;;4977813;28;19918;-84
2022/07/16 16:41:35;;;;;;;;;;;;;;;;;;4987347;28;20008;-86
2022/07/16 16:44:00;;;;;;;;;;;;;;;;;;4994718;28;19942;-84
2022/07/16 16:46:26;;;;;;;;;;;;;;;;;;4962659;28;19914;-85
2022/07/16 16:48:53;;;;;;;;;;;;;;;;;;4992241;28;19914;-83